N531BM KPOC-KCRQ
Flight info
| Callsign | N531BM |
|---|---|
| Flight time | N/A |
| Altitude | 7000 |
| Route | ONTP11 |
| Aircraft | P28A/L-VGD/C |
Departure
| Time | 2026-04-25 15:20 |
|---|---|
| Airport | Brackett Field (KPOC) |
Arrival
| Time | N/A |
|---|---|
| Airport | McClellan-Palomar Airport (KCRQ) |
| Time | Latitude | Longitude | Altitude | Speed | Heading |
|---|---|---|---|---|---|
| 2026-04-25 15:06 | 34.08920 | -117.78104 | 1014 ft | 0 kts | 182° |
| 2026-04-25 15:14 | 34.08919 | -117.78104 | 1014 ft | 0 kts | 181° |
| 2026-04-25 15:15 | 34.08917 | -117.78103 | 1014 ft | 2 kts | 165° |
| 2026-04-25 15:15 | 34.08927 | -117.78094 | 1014 ft | 2 kts | 359° |
| 2026-04-25 15:16 | 34.08928 | -117.78094 | 1014 ft | 0 kts | 1° |
| 2026-04-25 15:16 | 34.08951 | -117.78092 | 1014 ft | 10 kts | 5° |
| 2026-04-25 15:16 | 34.09035 | -117.77844 | 1014 ft | 21 kts | 93° |
| 2026-04-25 15:17 | 34.09017 | -117.77519 | 1014 ft | 13 kts | 86° |
| 2026-04-25 15:17 | 34.09048 | -117.77489 | 1014 ft | 0 kts | 1° |
| 2026-04-25 15:18 | 34.09049 | -117.77489 | 1014 ft | 0 kts | 2° |
| 2026-04-25 15:19 | 34.09060 | -117.77488 | 1014 ft | 8 kts | 1° |
| 2026-04-25 15:19 | 34.09096 | -117.77495 | 1014 ft | 5 kts | 302° |
| 2026-04-25 15:19 | 34.09109 | -117.77748 | 1015 ft | 56 kts | 273° |
| 2026-04-25 15:19 | 34.09130 | -117.78339 | 1164 ft | 74 kts | 272° |
| 2026-04-25 15:20 | 34.09148 | -117.78970 | 1396 ft | 78 kts | 269° |
| 2026-04-25 15:20 | 34.08957 | -117.79530 | 1678 ft | 72 kts | 222° |
| 2026-04-25 15:20 | 34.08477 | -117.79672 | 1905 ft | 75 kts | 164° |
| 2026-04-25 15:20 | 34.08033 | -117.79340 | 2120 ft | 79 kts | 142° |
| 2026-04-25 15:21 | 34.07598 | -117.78946 | 2371 ft | 76 kts | 142° |
| 2026-04-25 15:21 | 34.07132 | -117.78615 | 2550 ft | 84 kts | 167° |
| 2026-04-25 15:21 | 34.06562 | -117.78643 | 2802 ft | 80 kts | 182° |
| 2026-04-25 15:21 | 34.05985 | -117.78646 | 2985 ft | 85 kts | 180° |
| 2026-04-25 15:22 | 34.05394 | -117.78655 | 3198 ft | 86 kts | 179° |
| 2026-04-25 15:22 | 34.04782 | -117.78617 | 3388 ft | 87 kts | 174° |
| 2026-04-25 15:22 | 34.04177 | -117.78595 | 3592 ft | 88 kts | 179° |
| 2026-04-25 15:22 | 34.03578 | -117.78584 | 3810 ft | 86 kts | 178° |
| 2026-04-25 15:23 | 34.03380 | -117.78578 | 3867 ft | 87 kts | 178° |
| 2026-04-25 15:23 | 34.03297 | -117.78574 | 3890 ft | 87 kts | 177° |
| 2026-04-25 15:23 | 34.02689 | -117.78568 | 4088 ft | 87 kts | 181° |
| 2026-04-25 15:23 | 34.02081 | -117.78570 | 4274 ft | 88 kts | 177° |
| 2026-04-25 15:24 | 34.01472 | -117.78532 | 4461 ft | 88 kts | 178° |
| 2026-04-25 15:24 | 34.00859 | -117.78536 | 4641 ft | 88 kts | 178° |
| 2026-04-25 15:24 | 34.00256 | -117.78493 | 4817 ft | 88 kts | 176° |
| 2026-04-25 15:24 | 33.99840 | -117.78485 | 4930 ft | 89 kts | 179° |
| 2026-04-25 15:25 | 33.99029 | -117.78457 | 5156 ft | 89 kts | 178° |
| 2026-04-25 15:25 | 33.98397 | -117.78432 | 5332 ft | 88 kts | 177° |
| 2026-04-25 15:25 | 33.97782 | -117.78439 | 5486 ft | 90 kts | 177° |
| 2026-04-25 15:25 | 33.97163 | -117.78407 | 5651 ft | 89 kts | 176° |
| 2026-04-25 15:26 | 33.96536 | -117.78384 | 5800 ft | 90 kts | 180° |
| 2026-04-25 15:26 | 33.95909 | -117.78394 | 5959 ft | 90 kts | 180° |
| 2026-04-25 15:26 | 33.95283 | -117.78405 | 6110 ft | 90 kts | 179° |
| 2026-04-25 15:26 | 33.94654 | -117.78371 | 6251 ft | 91 kts | 179° |
| 2026-04-25 15:27 | 33.94024 | -117.78338 | 6406 ft | 90 kts | 172° |
| 2026-04-25 15:27 | 33.93459 | -117.78034 | 6514 ft | 93 kts | 136° |
| 2026-04-25 15:27 | 33.93223 | -117.76555 | 6799 ft | 91 kts | 91° |
| 2026-04-25 15:28 | 33.93068 | -117.75812 | 6880 ft | 96 kts | 115° |
| 2026-04-25 15:28 | 33.92793 | -117.75090 | 7009 ft | 95 kts | 111° |
| 2026-04-25 15:28 | 33.92517 | -117.74323 | 7043 ft | 102 kts | 112° |
| 2026-04-25 15:28 | 33.92250 | -117.73516 | 7075 ft | 107 kts | 112° |
| 2026-04-25 15:29 | 33.91979 | -117.72628 | 7015 ft | 116 kts | 100° |
| 2026-04-25 15:29 | 33.91992 | -117.71648 | 7012 ft | 117 kts | 85° |
| 2026-04-25 15:29 | 33.92045 | -117.70652 | 6963 ft | 121 kts | 86° |
| 2026-04-25 15:29 | 33.92089 | -117.69674 | 7035 ft | 114 kts | 87° |
| 2026-04-25 15:30 | 33.92130 | -117.68734 | 7068 ft | 115 kts | 86° |
| 2026-04-25 15:30 | 33.92203 | -117.67771 | 7050 ft | 116 kts | 84° |
| 2026-04-25 15:30 | 33.92206 | -117.66801 | 7069 ft | 116 kts | 92° |
| 2026-04-25 15:30 | 33.92180 | -117.65813 | 7055 ft | 118 kts | 91° |
| 2026-04-25 15:31 | 33.92165 | -117.64829 | 7033 ft | 119 kts | 91° |
| 2026-04-25 15:31 | 33.92150 | -117.63824 | 6993 ft | 121 kts | 91° |
| 2026-04-25 15:31 | 33.92118 | -117.62819 | 6996 ft | 120 kts | 93° |
| 2026-04-25 15:31 | 33.92072 | -117.61812 | 6972 ft | 120 kts | 90° |
| 2026-04-25 15:32 | 33.92092 | -117.60816 | 6998 ft | 117 kts | 89° |
| 2026-04-25 15:32 | 33.92108 | -117.59839 | 7018 ft | 116 kts | 89° |
| 2026-04-25 15:32 | 33.92112 | -117.58862 | 7003 ft | 118 kts | 91° |